createdAt,value
2018-05-29T00:00:08.070Z,15.80
2018-05-29T00:01:07.985Z,16.10
2018-05-29T00:02:07.906Z,15.40
2018-05-29T00:03:07.810Z,16.30
2018-05-29T00:04:07.755Z,15.60
2018-05-29T00:05:07.631Z,15.90
2018-05-29T00:06:07.551Z,15.40
2018-05-29T00:07:07.459Z,15.30
2018-05-29T00:08:07.371Z,14.60
2018-05-29T00:09:07.326Z,15.20
2018-05-29T00:10:07.198Z,13.50
2018-05-29T00:11:07.217Z,14.70
2018-05-29T00:12:07.019Z,14.40
2018-05-29T00:13:06.933Z,13.80
2018-05-29T00:14:06.854Z,14.60
2018-05-29T00:15:06.789Z,13.70
2018-05-29T00:16:06.669Z,14.50
2018-05-29T00:17:06.580Z,14.60
2018-05-29T00:18:06.589Z,13.90
2018-05-29T00:19:06.406Z,14.70
2018-05-29T00:20:06.352Z,14.40
2018-05-29T00:21:06.228Z,14.20
2018-05-29T00:22:06.144Z,14.30
2018-05-29T00:23:06.057Z,15.00
2018-05-29T00:24:05.969Z,13.70
2018-05-29T00:25:06.016Z,14.10
2018-05-29T00:26:05.793Z,13.90
2018-05-29T00:27:05.708Z,14.50
2018-05-29T00:28:05.619Z,13.90
2018-05-29T00:29:05.532Z,14.60
2018-05-29T00:30:05.445Z,14.20
2018-05-29T00:31:05.386Z,14.20
2018-05-29T00:32:05.360Z,14.70
2018-05-29T00:33:05.180Z,14.70
2018-05-29T00:34:05.092Z,14.70
2018-05-29T00:35:05.011Z,14.90
2018-05-29T00:36:04.948Z,15.90
2018-05-29T00:37:04.829Z,14.70
2018-05-29T00:38:04.741Z,14.60
2018-05-29T00:39:04.748Z,15.30
2018-05-29T00:40:04.569Z,15.40
2018-05-29T00:41:04.511Z,15.10
2018-05-29T00:42:04.393Z,15.20
2018-05-29T00:43:04.305Z,15.40
2018-05-29T00:44:04.228Z,15.70
2018-05-29T00:45:04.127Z,15.20
2018-05-29T00:46:04.170Z,14.90
2018-05-29T00:47:03.956Z,15.00
2018-05-29T00:48:03.864Z,14.80
2018-05-29T00:49:03.779Z,15.00
2018-05-29T00:50:03.689Z,15.40
2018-05-29T00:51:03.606Z,14.90
2018-05-29T00:52:03.544Z,14.80
2018-05-29T00:53:03.520Z,15.20
2018-05-29T00:54:03.341Z,15.60
2018-05-29T00:55:03.256Z,15.00
2018-05-29T00:56:03.169Z,15.20
2018-05-29T00:57:03.111Z,15.00
2018-05-29T00:58:02.988Z,15.60
2018-05-29T00:59:02.902Z,14.40
2018-05-29T01:00:02.910Z,15.60
2018-05-29T01:01:02.726Z,15.20
2018-05-29T01:02:02.670Z,15.50
2018-05-29T01:03:02.552Z,15.70
2018-05-29T01:04:02.469Z,15.70
2018-05-29T01:05:02.394Z,15.30
2018-05-29T01:06:02.287Z,15.40
2018-05-29T01:07:02.336Z,16.30
2018-05-29T01:08:02.116Z,15.10
2018-05-29T01:09:02.027Z,15.60
2018-05-29T01:10:01.942Z,16.40
2018-05-29T01:11:01.852Z,15.90
2018-05-29T01:12:01.765Z,15.40
2018-05-29T01:13:01.709Z,16.70
2018-05-29T01:14:01.685Z,15.90
2018-05-29T01:15:01.501Z,15.70
2018-05-29T01:16:01.413Z,16.40
2018-05-29T01:17:01.326Z,16.40
2018-05-29T01:18:01.271Z,16.60
2018-05-29T01:19:01.152Z,15.70
2018-05-29T01:20:01.061Z,15.60
2018-05-29T01:21:01.067Z,16.20
2018-05-29T01:22:00.889Z,16.20
2018-05-29T01:23:00.804Z,15.80
2018-05-29T01:24:00.748Z,15.90
2018-05-29T01:25:00.626Z,16.00
2018-05-29T01:26:00.538Z,15.80
2018-05-29T01:27:00.452Z,15.50
2018-05-29T01:28:00.365Z,15.30
2018-05-29T01:29:00.304Z,15.90
2018-05-29T01:30:00.189Z,16.00
2018-05-29T01:31:00.099Z,15.00
2018-05-29T01:32:00.016Z,15.80
2018-05-29T01:32:59.922Z,16.00
2018-05-29T01:33:59.865Z,15.70
2018-05-29T01:34:59.746Z,16.30
2018-05-29T01:35:59.661Z,16.60
2018-05-29T01:36:59.573Z,16.10
2018-05-29T01:37:59.483Z,16.00
2018-05-29T01:38:59.427Z,16.10
2018-05-29T01:39:59.311Z,15.80
2018-05-29T01:40:59.223Z,16.00
2018-05-29T01:41:59.137Z,15.80
2018-05-29T01:42:59.046Z,16.00
2018-05-29T01:43:59.005Z,15.60
2018-05-29T01:44:58.870Z,16.00
2018-05-29T01:45:58.783Z,15.90
2018-05-29T01:46:58.697Z,15.60
2018-05-29T01:47:58.608Z,16.50
2018-05-29T01:48:58.522Z,15.80
2018-05-29T01:49:58.492Z,16.10
2018-05-29T01:50:58.346Z,16.30
2018-05-29T01:51:58.255Z,16.40
2018-05-29T01:52:58.170Z,16.10
2018-05-29T01:53:58.081Z,15.50
2018-05-29T01:54:58.023Z,15.90
2018-05-29T01:55:57.906Z,16.10
2018-05-29T01:56:57.818Z,15.40
2018-05-29T01:57:57.728Z,16.40
2018-05-29T01:58:57.641Z,16.30
2018-05-29T01:59:57.587Z,15.90
2018-05-29T02:00:57.465Z,15.80
2018-05-29T02:01:57.378Z,15.50
2018-05-29T02:02:57.291Z,15.60
2018-05-29T02:03:57.203Z,15.90
2018-05-29T02:04:57.118Z,16.10
2018-05-29T02:05:57.057Z,15.50
2018-05-29T02:06:56.938Z,16.20
2018-05-29T02:07:56.855Z,16.40
2018-05-29T02:08:56.768Z,16.10
2018-05-29T02:09:56.678Z,15.90
2018-05-29T02:10:56.617Z,16.80
2018-05-29T02:11:56.499Z,16.20
2018-05-29T02:12:56.411Z,16.30
2018-05-29T02:13:56.321Z,15.60
2018-05-29T02:14:56.236Z,15.50
2018-05-29T02:15:56.178Z,15.30
2018-05-29T02:16:56.061Z,16.60
2018-05-29T02:17:55.973Z,15.70
2018-05-29T02:18:55.885Z,15.60
2018-05-29T02:19:55.797Z,17.00
2018-05-29T02:20:55.737Z,15.60
2018-05-29T02:21:55.630Z,16.50
2018-05-29T02:22:55.531Z,16.30
2018-05-29T02:23:55.442Z,16.00
2018-05-29T02:24:55.355Z,16.10
2018-05-29T02:25:55.298Z,15.50
2018-05-29T02:26:55.180Z,16.30
2018-05-29T02:27:55.092Z,15.90
2018-05-29T02:28:55.006Z,16.10
2018-05-29T02:29:55.012Z,15.90
2018-05-29T02:30:54.868Z,16.60
2018-05-29T02:31:54.743Z,16.80
2018-05-29T02:32:54.651Z,17.50
2018-05-29T02:33:54.565Z,16.40
2018-05-29T02:34:54.478Z,16.40
2018-05-29T02:35:54.392Z,16.90
2018-05-29T02:36:54.335Z,16.40
2018-05-29T02:37:54.213Z,16.50
2018-05-29T02:38:54.129Z,16.10
2018-05-29T02:39:54.039Z,16.00
2018-05-29T02:40:53.953Z,16.40
2018-05-29T02:41:53.897Z,16.70
2018-05-29T02:42:53.783Z,16.80
2018-05-29T02:43:53.688Z,17.20
2018-05-29T02:44:53.596Z,16.70
2018-05-29T02:45:53.509Z,18.30
2018-05-29T02:46:53.453Z,17.20
2018-05-29T02:47:53.342Z,18.10
2018-05-29T02:48:53.246Z,16.30
2018-05-29T02:49:53.163Z,17.60
2018-05-29T02:50:53.071Z,16.70
2018-05-29T02:51:52.987Z,17.20
2018-05-29T02:52:52.925Z,16.30
2018-05-29T02:53:52.825Z,17.40
2018-05-29T02:54:52.718Z,17.90
2018-05-29T02:55:52.629Z,17.70
2018-05-29T02:56:52.542Z,18.00
2018-05-29T02:57:52.490Z,16.80
2018-05-29T02:58:52.370Z,18.10
2018-05-29T02:59:52.275Z,17.20
2018-05-29T03:00:52.189Z,17.60
2018-05-29T03:01:52.103Z,17.50
2018-05-29T03:02:52.047Z,17.40
2018-05-29T03:03:51.928Z,17.30
2018-05-29T03:04:51.841Z,17.90
2018-05-29T03:05:51.752Z,17.90
2018-05-29T03:06:51.710Z,17.10
2018-05-29T03:07:51.610Z,17.10
2018-05-29T03:08:51.484Z,17.20
2018-05-29T03:09:51.397Z,17.90
2018-05-29T03:10:51.310Z,17.80
2018-05-29T03:11:51.222Z,17.40
2018-05-29T03:12:51.134Z,17.40
2018-05-29T03:13:51.077Z,18.30
2018-05-29T03:14:50.958Z,18.00
2018-05-29T03:15:50.870Z,17.20
2018-05-29T03:16:50.778Z,18.00
2018-05-29T03:17:50.693Z,18.30
2018-05-29T03:18:50.634Z,18.50
2018-05-29T03:19:50.516Z,17.80
2018-05-29T03:20:50.458Z,18.40
2018-05-29T03:21:50.343Z,17.80
2018-05-29T03:22:50.252Z,18.00
2018-05-29T03:23:50.209Z,18.60
2018-05-29T03:24:50.074Z,18.50
2018-05-29T03:25:50.000Z,18.50
2018-05-29T03:26:49.912Z,17.40
2018-05-29T03:27:50.114Z,17.40
2018-05-29T03:28:49.724Z,18.70
2018-05-29T03:29:49.667Z,19.60
2018-05-29T03:30:49.547Z,18.50
2018-05-29T03:31:49.458Z,18.30
2018-05-29T03:32:49.368Z,19.10
2018-05-29T03:33:49.374Z,18.70
2018-05-29T03:34:49.226Z,19.20
2018-05-29T03:35:49.107Z,19.60
2018-05-29T03:36:49.016Z,18.40
2018-05-29T03:37:48.929Z,19.20
2018-05-29T03:38:48.846Z,18.70
2018-05-29T03:39:48.784Z,18.40
2018-05-29T03:40:48.757Z,18.00
2018-05-29T03:41:48.576Z,18.90
2018-05-29T03:42:48.489Z,18.60
2018-05-29T03:43:48.401Z,18.90
2018-05-29T03:44:48.354Z,18.90
2018-05-29T03:45:48.224Z,18.70
2018-05-29T03:46:48.136Z,18.80
2018-05-29T03:47:48.162Z,17.40
2018-05-29T03:48:47.958Z,18.80
2018-05-29T03:49:47.872Z,18.60
2018-05-29T03:50:47.811Z,19.00
2018-05-29T03:51:47.695Z,18.20
2018-05-29T03:52:47.607Z,17.70
2018-05-29T03:53:47.522Z,19.20
2018-05-29T03:54:47.523Z,18.30
2018-05-29T03:55:47.373Z,18.80
2018-05-29T03:56:47.253Z,17.90
2018-05-29T03:57:47.168Z,18.60
2018-05-29T03:58:47.077Z,18.20
2018-05-29T03:59:46.990Z,18.50
2018-05-29T04:00:46.932Z,18.80
2018-05-29T04:01:46.909Z,18.80
2018-05-29T04:02:46.727Z,17.60
2018-05-29T04:03:46.638Z,17.70
2018-05-29T04:04:46.550Z,18.80
2018-05-29T04:05:46.462Z,17.70
2018-05-29T04:06:46.408Z,18.00
2018-05-29T04:07:46.406Z,18.40
2018-05-29T04:08:46.197Z,18.40
2018-05-29T04:09:46.111Z,17.60
2018-05-29T04:10:46.024Z,18.50
2018-05-29T04:11:45.962Z,18.40
2018-05-29T04:12:45.842Z,18.20
2018-05-29T04:13:45.757Z,17.10
2018-05-29T04:14:45.670Z,18.80
2018-05-29T04:15:45.690Z,18.30
2018-05-29T04:16:45.525Z,18.90
2018-05-29T04:17:45.408Z,18.70
2018-05-29T04:18:45.315Z,18.50
2018-05-29T04:19:45.245Z,18.50
2018-05-29T04:20:45.140Z,17.90
2018-05-29T04:21:45.100Z,18.60
2018-05-29T04:22:44.968Z,16.80
2018-05-29T04:23:44.877Z,18.30
2018-05-29T04:24:44.788Z,17.70
2018-05-29T04:25:44.698Z,17.60
2018-05-29T04:26:44.612Z,18.10
2018-05-29T04:27:44.556Z,19.10
2018-05-29T04:28:44.437Z,18.20
2018-05-29T04:29:44.348Z,17.60
2018-05-29T04:30:44.261Z,18.40
2018-05-29T04:31:44.175Z,18.00
2018-05-29T04:32:44.117Z,18.10
2018-05-29T04:33:43.998Z,18.00
2018-05-29T04:34:43.909Z,17.40
2018-05-29T04:35:43.821Z,16.40
2018-05-29T04:36:43.731Z,18.20
2018-05-29T04:37:43.674Z,16.80
2018-05-29T04:38:43.555Z,16.10
2018-05-29T04:39:43.472Z,17.30
2018-05-29T04:40:43.382Z,17.20
2018-05-29T04:41:43.294Z,17.70
2018-05-29T04:42:43.237Z,17.30
2018-05-29T04:43:43.123Z,16.50
2018-05-29T04:44:43.033Z,17.10
2018-05-29T04:45:42.944Z,17.50
2018-05-29T04:46:42.854Z,17.00
2018-05-29T04:47:42.768Z,17.20
2018-05-29T04:48:42.707Z,16.80
2018-05-29T04:49:42.641Z,16.00
2018-05-29T04:50:42.504Z,17.00
2018-05-29T04:51:42.413Z,17.20
2018-05-29T04:52:42.329Z,15.80
2018-05-29T04:53:42.271Z,16.40
2018-05-29T04:54:42.151Z,16.70
2018-05-29T04:55:42.065Z,15.70
2018-05-29T04:56:41.976Z,16.00
2018-05-29T04:57:41.889Z,16.40
2018-05-29T04:58:41.836Z,15.90
2018-05-29T04:59:41.720Z,15.50
2018-05-29T05:00:41.627Z,16.10
2018-05-29T05:01:41.540Z,16.10
2018-05-29T05:02:41.463Z,15.70
2018-05-29T05:03:41.395Z,15.70
2018-05-29T05:04:41.276Z,15.50
2018-05-29T05:05:41.193Z,14.90
2018-05-29T05:06:41.103Z,15.50
2018-05-29T05:07:41.016Z,16.30
2018-05-29T05:08:40.960Z,16.30
2018-05-29T05:09:40.841Z,15.30
2018-05-29T05:10:40.755Z,15.40
2018-05-29T05:11:40.672Z,16.10
2018-05-29T05:12:40.581Z,15.80
2018-05-29T05:13:40.492Z,15.40
2018-05-29T05:14:40.438Z,15.20
2018-05-29T05:15:40.317Z,15.20
2018-05-29T05:16:40.232Z,15.60
2018-05-29T05:17:40.149Z,15.50
2018-05-29T05:18:40.056Z,16.10
2018-05-29T05:19:40.006Z,15.60
2018-05-29T05:20:39.882Z,16.00
2018-05-29T05:21:39.796Z,15.40
2018-05-29T05:22:39.709Z,15.90
2018-05-29T05:23:39.659Z,15.20
2018-05-29T05:24:39.568Z,15.10
2018-05-29T05:25:39.448Z,15.20
2018-05-29T05:26:39.360Z,16.00
2018-05-29T05:27:39.276Z,15.80
2018-05-29T05:28:39.185Z,15.50
2018-05-29T05:29:39.131Z,15.30
2018-05-29T05:30:39.017Z,15.20
2018-05-29T05:31:38.930Z,15.60
2018-05-29T05:32:38.839Z,15.40
2018-05-29T05:33:38.755Z,15.00
2018-05-29T05:34:38.702Z,15.50
2018-05-29T05:35:38.577Z,15.20
2018-05-29T05:36:38.489Z,15.10
2018-05-29T05:37:38.405Z,15.20
2018-05-29T05:38:38.410Z,15.30
2018-05-29T05:39:38.265Z,15.10
2018-05-29T05:40:38.144Z,15.10
2018-05-29T05:41:38.057Z,15.50
2018-05-29T05:42:37.969Z,16.00
2018-05-29T05:43:37.889Z,15.10
2018-05-29T05:44:37.826Z,15.00
2018-05-29T05:45:37.804Z,14.30
2018-05-29T05:46:37.622Z,14.50
2018-05-29T05:47:37.537Z,15.20
2018-05-29T05:48:37.452Z,14.30
2018-05-29T05:49:37.364Z,14.10
2018-05-29T05:50:37.308Z,14.30
2018-05-29T05:51:37.188Z,14.60
2018-05-29T05:52:37.240Z,14.90
2018-05-29T05:53:37.016Z,15.20
2018-05-29T05:54:36.934Z,14.40
2018-05-29T05:55:36.873Z,14.90
2018-05-29T05:56:36.755Z,14.80
2018-05-29T05:57:36.667Z,15.00
2018-05-29T05:58:36.584Z,15.20
2018-05-29T05:59:36.588Z,14.80
2018-05-29T06:00:36.445Z,14.20
2018-05-29T06:01:36.323Z,14.40
2018-05-29T06:02:36.236Z,15.10
2018-05-29T06:03:36.151Z,13.60
2018-05-29T06:04:36.066Z,14.30
2018-05-29T06:05:36.011Z,14.90
2018-05-29T06:06:35.982Z,15.60
2018-05-29T06:07:35.808Z,15.20
2018-05-29T06:08:35.716Z,14.60
2018-05-29T06:09:35.633Z,14.30
2018-05-29T06:10:35.578Z,15.00
2018-05-29T06:11:35.460Z,14.60
2018-05-29T06:12:35.372Z,14.70
2018-05-29T06:13:35.379Z,14.70
2018-05-29T06:14:35.198Z,14.30
2018-05-29T06:15:35.144Z,14.30
2018-05-29T06:16:35.027Z,14.70
2018-05-29T06:17:34.940Z,13.80
2018-05-29T06:18:34.863Z,14.30
2018-05-29T06:19:34.770Z,14.30
2018-05-29T06:20:34.809Z,15.00
2018-05-29T06:21:34.594Z,14.50
2018-05-29T06:22:34.514Z,14.20
2018-05-29T06:23:34.426Z,13.20
2018-05-29T06:24:34.336Z,13.90
2018-05-29T06:25:34.285Z,14.80
2018-05-29T06:26:34.166Z,14.50
2018-05-29T06:27:34.170Z,14.50
2018-05-29T06:28:33.994Z,14.90
2018-05-29T06:29:33.908Z,14.80
2018-05-29T06:30:33.860Z,13.60
2018-05-29T06:31:33.736Z,14.80
2018-05-29T06:32:33.649Z,14.30
2018-05-29T06:33:33.563Z,15.20
2018-05-29T06:34:33.573Z,15.00
2018-05-29T06:35:33.424Z,13.40
2018-05-29T06:36:33.304Z,13.90
2018-05-29T06:37:33.221Z,14.40
2018-05-29T06:38:33.136Z,14.30
2018-05-29T06:39:33.049Z,13.90
2018-05-29T06:40:33.010Z,13.40
2018-05-29T06:41:32.879Z,13.70
2018-05-29T06:42:32.791Z,13.80
2018-05-29T06:43:32.706Z,13.20
2018-05-29T06:44:32.622Z,14.10
2018-05-29T06:45:32.538Z,12.60
2018-05-29T06:46:32.483Z,12.50
2018-05-29T06:47:32.370Z,13.30
2018-05-29T06:48:32.283Z,13.00
2018-05-29T06:49:32.200Z,13.30
2018-05-29T06:50:32.118Z,13.90
2018-05-29T06:51:32.064Z,12.80
2018-05-29T06:52:32.001Z,13.50
2018-05-29T06:53:31.867Z,13.80
2018-05-29T06:54:31.783Z,13.60
2018-05-29T06:55:31.699Z,12.80
2018-05-29T06:56:31.643Z,12.50
2018-05-29T06:57:31.530Z,13.70
2018-05-29T06:58:31.448Z,13.00
2018-05-29T06:59:31.366Z,12.90
2018-05-29T07:00:31.280Z,11.90
2018-05-29T07:01:31.227Z,13.70
2018-05-29T07:02:31.124Z,12.20
2018-05-29T07:03:31.031Z,12.50
2018-05-29T07:04:30.951Z,12.60
2018-05-29T07:05:30.868Z,12.60
2018-05-29T07:06:30.816Z,12.70
2018-05-29T07:07:30.704Z,13.00
2018-05-29T07:08:30.619Z,12.80
2018-05-29T07:09:30.538Z,11.90
2018-05-29T07:10:30.456Z,12.30
2018-05-29T07:11:30.405Z,12.20
2018-05-29T07:12:30.293Z,12.10
2018-05-29T07:13:30.208Z,12.00
2018-05-29T07:14:30.158Z,12.40
2018-05-29T07:15:30.046Z,12.90
2018-05-29T07:16:29.995Z,12.30
2018-05-29T07:17:29.885Z,12.30
2018-05-29T07:18:29.809Z,11.80
2018-05-29T07:19:29.725Z,12.80
2018-05-29T07:20:29.641Z,12.60
2018-05-29T07:21:29.587Z,11.80
2018-05-29T07:22:29.477Z,12.20
2018-05-29T07:23:29.404Z,11.80
2018-05-29T07:24:29.314Z,12.30
2018-05-29T07:25:29.230Z,11.90
2018-05-29T07:26:29.185Z,11.90
2018-05-29T07:27:29.069Z,12.70
2018-05-29T07:28:28.992Z,12.10
2018-05-29T07:29:28.905Z,12.20
2018-05-29T07:30:28.825Z,12.90
2018-05-29T07:31:28.775Z,12.10
2018-05-29T07:32:28.660Z,11.80
2018-05-29T07:33:28.580Z,13.40
2018-05-29T07:34:28.499Z,12.40
2018-05-29T07:35:28.421Z,11.60
2018-05-29T07:36:28.366Z,11.60
2018-05-29T07:37:28.279Z,11.60
2018-05-29T07:38:28.175Z,12.50
2018-05-29T07:39:28.098Z,11.90
2018-05-29T07:40:28.012Z,12.40
2018-05-29T07:41:27.962Z,11.90
2018-05-29T07:42:27.848Z,12.00
2018-05-29T07:43:27.767Z,12.20
2018-05-29T07:44:27.691Z,12.50
2018-05-29T07:45:27.607Z,11.90
2018-05-29T07:46:27.555Z,12.40
2018-05-29T07:47:27.443Z,12.20
2018-05-29T07:48:27.359Z,11.30
2018-05-29T07:49:27.283Z,11.30
2018-05-29T07:50:27.201Z,11.70
2018-05-29T07:51:27.124Z,12.90
2018-05-29T07:52:27.070Z,12.40
2018-05-29T07:53:26.960Z,12.00
2018-05-29T07:54:26.877Z,11.60
2018-05-29T07:55:26.798Z,11.50
2018-05-29T07:56:26.717Z,11.80
2018-05-29T07:57:26.757Z,11.90
2018-05-29T07:58:26.558Z,11.90
2018-05-29T07:59:26.480Z,12.20
2018-05-29T08:00:26.403Z,11.30
2018-05-29T08:01:26.314Z,11.60
2018-05-29T08:02:26.262Z,11.30
2018-05-29T08:03:26.151Z,11.40
2018-05-29T08:04:26.161Z,12.30
2018-05-29T08:05:25.990Z,12.10
2018-05-29T08:06:25.916Z,11.70
2018-05-29T08:07:25.861Z,11.40
2018-05-29T08:08:25.750Z,11.90
2018-05-29T08:09:25.670Z,12.10
2018-05-29T08:10:25.590Z,11.70
2018-05-29T08:11:25.605Z,11.60
2018-05-29T08:12:25.476Z,11.80
2018-05-29T08:13:25.350Z,12.00
2018-05-29T08:14:25.270Z,12.20
2018-05-29T08:15:25.190Z,11.80
2018-05-29T08:16:25.110Z,11.40
2018-05-29T08:17:25.058Z,11.00
2018-05-29T08:18:25.044Z,11.20
2018-05-29T08:19:24.869Z,12.00
2018-05-29T08:20:24.790Z,11.30
2018-05-29T08:21:24.708Z,11.30
2018-05-29T08:22:24.662Z,11.90
2018-05-29T08:23:24.563Z,12.60
2018-05-29T08:24:24.469Z,12.50
2018-05-29T08:25:24.485Z,12.50
2018-05-29T08:26:24.311Z,12.00
2018-05-29T08:27:24.260Z,12.00
2018-05-29T08:28:24.150Z,11.90
2018-05-29T08:29:24.068Z,11.70
2018-05-29T08:30:23.991Z,12.60
2018-05-29T08:31:23.909Z,12.20
2018-05-29T08:32:23.951Z,12.50
2018-05-29T08:33:23.749Z,12.10
2018-05-29T08:34:23.671Z,12.40
2018-05-29T08:35:23.590Z,12.00
2018-05-29T08:36:23.508Z,12.30
2018-05-29T08:37:23.465Z,12.20
2018-05-29T08:38:23.348Z,12.40
2018-05-29T08:39:23.324Z,12.10
2018-05-29T08:40:23.190Z,12.00
2018-05-29T08:41:23.117Z,11.80
2018-05-29T08:42:23.062Z,12.10
2018-05-29T08:43:22.952Z,12.60
2018-05-29T08:44:22.871Z,12.60
2018-05-29T08:45:22.789Z,11.70
2018-05-29T08:46:22.715Z,12.30
2018-05-29T08:47:22.663Z,12.70
2018-05-29T08:48:22.549Z,12.30
2018-05-29T08:49:22.474Z,11.90
2018-05-29T08:50:22.392Z,12.30
2018-05-29T08:51:22.315Z,11.60
2018-05-29T08:52:22.236Z,12.00
2018-05-29T08:53:22.189Z,12.30
2018-05-29T08:54:22.069Z,12.20
2018-05-29T08:55:21.996Z,12.10
2018-05-29T08:56:21.913Z,12.40
2018-05-29T08:57:21.841Z,11.70
2018-05-29T08:58:21.786Z,11.60
2018-05-29T08:59:21.676Z,11.80
2018-05-29T09:00:21.595Z,12.00
2018-05-29T09:01:21.518Z,11.60
2018-05-29T09:02:21.437Z,12.10
2018-05-29T09:03:21.398Z,11.40
2018-05-29T09:04:21.328Z,11.70
2018-05-29T09:05:21.201Z,11.90
2018-05-29T09:06:21.125Z,11.60
2018-05-29T09:07:21.044Z,12.10
2018-05-29T09:08:20.992Z,11.70
2018-05-29T09:09:20.882Z,12.40
2018-05-29T09:10:20.806Z,12.20
2018-05-29T09:11:20.726Z,11.90
2018-05-29T09:12:20.649Z,11.60
2018-05-29T09:13:20.598Z,11.70
2018-05-29T09:14:20.493Z,12.00
2018-05-29T09:15:20.415Z,11.70
2018-05-29T09:16:20.332Z,12.60
2018-05-29T09:17:20.254Z,11.60
2018-05-29T09:18:20.204Z,11.30
2018-05-29T09:19:20.103Z,11.70
2018-05-29T09:20:20.026Z,12.40
2018-05-29T09:21:19.939Z,12.00
2018-05-29T09:22:19.863Z,11.80
2018-05-29T09:23:19.812Z,12.40
2018-05-29T09:24:19.707Z,13.10
2018-05-29T09:25:19.624Z,12.40
2018-05-29T09:26:19.545Z,12.30
2018-05-29T09:27:19.469Z,12.30
2018-05-29T09:28:19.423Z,12.50
2018-05-29T09:29:19.313Z,12.30
2018-05-29T09:30:19.234Z,11.50
2018-05-29T09:31:19.155Z,11.60
2018-05-29T09:32:19.089Z,12.30
2018-05-29T09:33:19.028Z,11.80
2018-05-29T09:34:18.919Z,12.40
2018-05-29T09:35:18.840Z,12.20
2018-05-29T09:36:18.760Z,12.70
2018-05-29T09:37:18.687Z,11.90
2018-05-29T09:38:18.636Z,12.10
2018-05-29T09:39:18.528Z,11.90
2018-05-29T09:40:18.466Z,12.40
2018-05-29T09:41:18.372Z,11.40
2018-05-29T09:42:18.292Z,11.80
2018-05-29T09:43:18.248Z,11.90
2018-05-29T09:44:18.140Z,11.60
2018-05-29T09:45:18.059Z,11.60
2018-05-29T09:46:17.981Z,11.90
2018-05-29T09:47:17.902Z,12.20
2018-05-29T09:48:17.877Z,12.10
2018-05-29T09:49:17.744Z,11.40
2018-05-29T09:50:17.699Z,11.40
2018-05-29T09:51:17.591Z,12.30
2018-05-29T09:52:17.514Z,11.80
2018-05-29T09:53:17.439Z,11.80
2018-05-29T09:54:17.391Z,11.80
2018-05-29T09:55:17.281Z,11.70
2018-05-29T09:56:17.201Z,12.40
2018-05-29T09:57:17.125Z,12.70
2018-05-29T09:58:17.051Z,11.90
2018-05-29T09:59:17.002Z,11.70
2018-05-29T10:00:16.890Z,11.70
2018-05-29T10:01:16.814Z,11.90
2018-05-29T10:02:16.734Z,11.60
2018-05-29T10:03:16.660Z,11.80
2018-05-29T10:04:16.613Z,11.50
2018-05-29T10:05:16.504Z,11.70
2018-05-29T10:06:16.426Z,11.60
2018-05-29T10:07:16.380Z,11.30
2018-05-29T10:08:16.268Z,11.40
2018-05-29T10:09:16.224Z,11.50
2018-05-29T10:10:16.110Z,11.30
2018-05-29T10:11:16.056Z,11.20
2018-05-29T10:12:15.956Z,11.80
2018-05-29T10:13:15.930Z,11.60
2018-05-29T10:14:15.831Z,11.50
2018-05-29T10:15:15.723Z,11.60
2018-05-29T10:16:15.647Z,11.40
2018-05-29T10:17:15.569Z,11.20
2018-05-29T10:18:15.491Z,11.40
2018-05-29T10:19:15.475Z,11.00
2018-05-29T10:20:15.335Z,11.60
2018-05-29T10:21:15.255Z,11.20
2018-05-29T10:22:15.193Z,11.10
2018-05-29T10:23:15.099Z,10.90
2018-05-29T10:24:15.054Z,10.90
2018-05-29T10:25:14.947Z,11.20
2018-05-29T10:26:14.867Z,11.00
2018-05-29T10:27:14.790Z,10.90
2018-05-29T10:28:14.712Z,11.20
2018-05-29T10:29:14.662Z,10.20
2018-05-29T10:30:14.558Z,10.60
2018-05-29T10:31:14.480Z,10.10
2018-05-29T10:32:14.401Z,11.00
2018-05-29T10:33:14.321Z,10.80
2018-05-29T10:34:14.318Z,11.10
2018-05-29T10:35:14.181Z,10.30
2018-05-29T10:36:14.088Z,10.60
2018-05-29T10:37:14.011Z,10.40
2018-05-29T10:38:13.933Z,10.80
2018-05-29T10:39:13.887Z,10.80
2018-05-29T10:40:13.781Z,10.30
2018-05-29T10:41:13.700Z,11.10
2018-05-29T10:42:13.625Z,10.70
2018-05-29T10:43:13.545Z,11.20
2018-05-29T10:44:13.495Z,10.50
2018-05-29T10:45:13.479Z,10.70
2018-05-29T10:46:13.311Z,10.20
2018-05-29T10:47:13.242Z,10.60
2018-05-29T10:48:13.155Z,11.10
2018-05-29T10:49:13.113Z,10.60
2018-05-29T10:50:13.001Z,9.80
2018-05-29T10:51:12.927Z,9.90
2018-05-29T10:52:12.940Z,10.80
2018-05-29T10:53:12.769Z,10.90
2018-05-29T10:54:12.720Z,10.80
2018-05-29T10:55:12.611Z,11.60
2018-05-29T10:56:12.534Z,11.10
2018-05-29T10:57:12.460Z,10.30
2018-05-29T10:58:12.382Z,10.00
2018-05-29T10:59:12.448Z,10.80
2018-05-29T11:00:12.254Z,10.80
2018-05-29T11:01:12.147Z,10.30
2018-05-29T11:02:12.065Z,10.50
2018-05-29T11:03:11.991Z,10.10
2018-05-29T11:04:11.915Z,10.40
2018-05-29T11:05:11.868Z,9.80
2018-05-29T11:06:11.848Z,10.60
2018-05-29T11:07:11.683Z,10.30
2018-05-29T11:08:11.599Z,9.60
2018-05-29T11:09:11.524Z,9.30
2018-05-29T11:10:11.479Z,10.20
2018-05-29T11:11:11.368Z,10.00
2018-05-29T11:12:11.290Z,9.50
2018-05-29T11:13:11.308Z,9.40
2018-05-29T11:14:11.140Z,10.20
2018-05-29T11:15:11.092Z,10.10
2018-05-29T11:16:10.983Z,10.70
2018-05-29T11:17:10.905Z,10.10
2018-05-29T11:18:10.830Z,10.50
2018-05-29T11:19:10.750Z,10.00
2018-05-29T11:20:10.848Z,9.10
2018-05-29T11:21:10.596Z,9.70
2018-05-29T11:22:10.517Z,9.80
2018-05-29T11:23:10.440Z,9.50
2018-05-29T11:24:10.364Z,10.10
2018-05-29T11:25:10.325Z,10.30
2018-05-29T11:26:10.205Z,10.50
2018-05-29T11:27:10.226Z,10.10
2018-05-29T11:28:10.054Z,10.70
2018-05-29T11:29:09.974Z,10.30
2018-05-29T11:30:09.934Z,10.20
2018-05-29T11:31:09.880Z,10.50
2018-05-29T11:32:09.747Z,10.10
2018-05-29T11:33:09.667Z,11.00
2018-05-29T11:34:09.700Z,11.50
2018-05-29T11:35:09.550Z,10.20
2018-05-29T11:36:09.436Z,10.10
2018-05-29T11:37:09.375Z,10.10
2018-05-29T11:38:09.281Z,10.90
2018-05-29T11:39:09.206Z,9.80
2018-05-29T11:40:09.155Z,10.40
2018-05-29T11:41:09.146Z,11.00
2018-05-29T11:42:08.972Z,10.70
2018-05-29T11:43:08.897Z,11.10
2018-05-29T11:44:08.817Z,10.90
2018-05-29T11:45:08.777Z,11.20
2018-05-29T11:46:08.671Z,10.40
2018-05-29T11:47:08.586Z,10.70
2018-05-29T11:48:08.601Z,11.40
2018-05-29T11:49:08.488Z,10.90
2018-05-29T11:50:08.379Z,11.50
2018-05-29T11:51:08.275Z,11.40
2018-05-29T11:52:08.199Z,10.80
2018-05-29T11:53:08.118Z,11.30
2018-05-29T11:54:08.041Z,11.50
2018-05-29T11:55:07.995Z,11.00
2018-05-29T11:56:07.884Z,11.30
2018-05-29T11:57:07.811Z,11.90
2018-05-29T11:58:07.728Z,10.80
2018-05-29T11:59:07.651Z,10.60
2018-05-29T12:00:07.601Z,11.20
2018-05-29T12:01:07.494Z,10.60
2018-05-29T12:02:07.415Z,11.40
2018-05-29T12:03:07.337Z,10.70
2018-05-29T12:04:07.260Z,11.40
2018-05-29T12:05:07.180Z,11.20
2018-05-29T12:06:07.138Z,11.50
2018-05-29T12:07:07.023Z,11.30
2018-05-29T12:08:06.947Z,12.20
2018-05-29T12:09:06.866Z,12.30
2018-05-29T12:10:06.793Z,11.90
2018-05-29T12:11:06.743Z,12.80
2018-05-29T12:12:06.633Z,12.80
2018-05-29T12:13:06.553Z,12.10
2018-05-29T12:14:06.471Z,11.80
2018-05-29T12:15:06.396Z,12.20
2018-05-29T12:16:06.344Z,12.30
2018-05-29T12:17:06.231Z,12.10
2018-05-29T12:18:06.151Z,10.90
2018-05-29T12:19:06.130Z,12.10
2018-05-29T12:20:05.993Z,10.90
2018-05-29T12:21:05.961Z,10.50
2018-05-29T12:22:05.833Z,11.60
2018-05-29T12:23:05.755Z,12.10
2018-05-29T12:24:05.676Z,12.00
2018-05-29T12:25:05.600Z,12.40
2018-05-29T12:26:05.546Z,15.50
2018-05-29T12:27:05.440Z,11.40
2018-05-29T12:28:05.358Z,11.70
2018-05-29T12:29:05.278Z,10.20
2018-05-29T12:30:05.199Z,11.00
2018-05-29T12:31:05.151Z,10.90
2018-05-29T12:32:05.038Z,11.00
2018-05-29T12:33:04.963Z,10.40
2018-05-29T12:34:04.879Z,11.10
2018-05-29T12:35:04.806Z,11.00
2018-05-29T12:36:04.754Z,10.70
2018-05-29T12:37:04.646Z,11.70
2018-05-29T12:38:04.569Z,11.00
2018-05-29T12:39:04.486Z,10.30
2018-05-29T12:40:04.411Z,10.80
2018-05-29T12:41:04.362Z,10.80
2018-05-29T12:42:04.252Z,10.60
2018-05-29T12:43:04.174Z,10.70
2018-05-29T12:44:04.094Z,10.80
2018-05-29T12:45:04.015Z,11.40
2018-05-29T12:46:03.976Z,11.30
2018-05-29T12:47:03.860Z,11.20
2018-05-29T12:48:03.790Z,11.00
2018-05-29T12:49:03.703Z,10.50
2018-05-29T12:50:03.624Z,10.70
2018-05-29T12:51:03.579Z,11.20
2018-05-29T12:52:03.467Z,10.60